createdAt,value
2022-11-03T00:01:55.585Z,101425.09
2022-11-03T00:04:22.905Z,101423.38
2022-11-03T00:06:51.367Z,101423.38
2022-11-03T00:09:18.810Z,101436.59
2022-11-03T00:11:46.848Z,101433.25
2022-11-03T00:14:14.695Z,101421.16
2022-11-03T00:16:41.147Z,101428.38
2022-11-03T00:19:08.410Z,101421.47
2022-11-03T00:21:34.680Z,101430.25
2022-11-03T00:24:02.853Z,101418.19
2022-11-03T00:26:31.288Z,101417.44
2022-11-03T00:29:02.616Z,101425.53
2022-11-03T00:31:34.797Z,101424.00
2022-11-03T00:34:02.230Z,101421.41
2022-11-03T00:36:30.869Z,101412.72
2022-11-03T00:38:57.363Z,101421.41
2022-11-03T00:41:24.437Z,101413.81
2022-11-03T00:43:51.561Z,101412.88
2022-11-03T00:46:19.251Z,101406.81
2022-11-03T00:48:45.366Z,101413.97
2022-11-03T00:51:23.351Z,101414.22
2022-11-03T00:53:58.339Z,101412.47
2022-11-03T00:56:33.366Z,101413.38
2022-11-03T00:59:01.626Z,101406.50
2022-11-03T01:01:33.126Z,101412.81
2022-11-03T01:04:18.115Z,101416.59
2022-11-03T01:06:50.257Z,101399.22
2022-11-03T01:09:22.164Z,101403.56
2022-11-03T01:12:11.444Z,101401.00
2022-11-03T01:14:52.041Z,101403.66
2022-11-03T01:17:26.511Z,101397.53
2022-11-03T01:19:53.354Z,101395.88
2022-11-03T01:22:20.046Z,101395.03
2022-11-03T01:24:47.049Z,101397.72
2022-11-03T01:27:16.143Z,101395.16
2022-11-03T01:29:42.406Z,101396.97
2022-11-03T01:32:09.111Z,101400.44
2022-11-03T01:34:35.539Z,101393.53
2022-11-03T01:37:01.967Z,101386.47
2022-11-03T01:39:28.344Z,101389.28
2022-11-03T01:41:54.641Z,101386.66
2022-11-03T01:44:26.694Z,101384.06
2022-11-03T01:47:25.200Z,101395.66
2022-11-03T01:49:58.180Z,101388.81
2022-11-03T01:52:54.753Z,101379.09
2022-11-03T01:55:24.788Z,101375.75
2022-11-03T01:57:55.972Z,101375.63
2022-11-03T02:00:22.167Z,101381.75
2022-11-03T02:02:48.442Z,101378.41
2022-11-03T02:05:19.703Z,101378.47
2022-11-03T02:07:57.007Z,101373.50
2022-11-03T02:10:24.041Z,101378.78
2022-11-03T02:12:50.237Z,101373.44
2022-11-03T02:15:19.272Z,101370.03
2022-11-03T02:17:47.924Z,101368.47
2022-11-03T02:20:19.653Z,101358.06
2022-11-03T02:22:51.553Z,101356.19
2022-11-03T02:25:37.834Z,101363.19
2022-11-03T02:28:05.825Z,101368.38
2022-11-03T02:30:39.042Z,101366.59
2022-11-03T02:33:18.545Z,101364.88
2022-11-03T02:36:05.369Z,101371.25
2022-11-03T02:38:36.362Z,101369.56
2022-11-03T02:41:07.678Z,101371.25
2022-11-03T02:43:34.726Z,101366.09
2022-11-03T02:46:04.636Z,101362.63
2022-11-03T02:48:30.823Z,101359.06
2022-11-03T02:50:56.984Z,101346.88
2022-11-03T02:53:23.110Z,101337.97
2022-11-03T02:56:01.652Z,101331.69
2022-11-03T02:58:38.581Z,101336.88
2022-11-03T03:01:48.439Z,101332.44
2022-11-03T03:04:24.482Z,101325.31
2022-11-03T03:07:04.756Z,101323.31
2022-11-03T03:09:37.370Z,101318.63
2022-11-03T03:12:05.269Z,101319.41
2022-11-03T03:14:37.128Z,101314.94
2022-11-03T03:17:13.602Z,101312.19
2022-11-03T03:19:56.651Z,101319.19
2022-11-03T03:22:45.815Z,101314.69
2022-11-03T03:25:17.955Z,101312.69
2022-11-03T03:27:49.472Z,101306.13
2022-11-03T03:30:17.429Z,101300.78
2022-11-03T03:32:47.518Z,101301.53
2022-11-03T03:35:21.148Z,101301.41
2022-11-03T03:37:51.072Z,101291.53
2022-11-03T03:40:23.304Z,101298.44
2022-11-03T03:42:51.743Z,101294.75
2022-11-03T03:45:19.513Z,101300.75
2022-11-03T03:47:46.830Z,101292.56
2022-11-03T03:50:13.240Z,101305.63
2022-11-03T03:52:39.434Z,101306.22
2022-11-03T03:55:12.522Z,101309.47
2022-11-03T03:57:38.654Z,101309.13
2022-11-03T04:00:06.381Z,101308.91
2022-11-03T04:02:38.520Z,101302.34
2022-11-03T04:05:05.112Z,101316.09
2022-11-03T04:07:49.823Z,101302.53
2022-11-03T04:10:21.742Z,101300.38
2022-11-03T04:13:07.016Z,101300.16
2022-11-03T04:15:51.955Z,101296.41
2022-11-03T04:18:40.500Z,101300.31
2022-11-03T04:21:25.627Z,101289.56
2022-11-03T04:23:53.253Z,101300.84
2022-11-03T04:26:23.076Z,101305.09
2022-11-03T04:28:50.625Z,101300.66
2022-11-03T04:31:18.103Z,101298.28
2022-11-03T04:33:44.918Z,101297.50
2022-11-03T04:36:19.443Z,101300.22
2022-11-03T04:38:46.005Z,101294.38
2022-11-03T04:41:21.407Z,101292.66
2022-11-03T04:43:48.220Z,101290.09
2022-11-03T04:46:17.916Z,101286.50
2022-11-03T04:48:44.683Z,101286.50
2022-11-03T04:51:17.167Z,101279.69
2022-11-03T04:54:18.679Z,101266.72
2022-11-03T04:56:44.846Z,101263.38
2022-11-03T04:59:12.943Z,101269.72
2022-11-03T05:01:39.147Z,101261.97
2022-11-03T05:04:12.597Z,101267.34
2022-11-03T05:06:38.758Z,101262.13
2022-11-03T05:09:17.958Z,101256.00
2022-11-03T05:11:46.143Z,101259.41
2022-11-03T05:14:18.820Z,101248.06
2022-11-03T05:16:45.265Z,101242.19
2022-11-03T05:19:22.653Z,101236.13
2022-11-03T05:21:50.581Z,101235.28
2022-11-03T05:24:21.188Z,101246.69
2022-11-03T05:26:48.463Z,101239.72
2022-11-03T05:29:18.823Z,101233.41
2022-11-03T05:31:47.983Z,101243.03
2022-11-03T05:34:36.296Z,101237.16
2022-11-03T05:37:26.848Z,101233.75
2022-11-03T05:39:56.859Z,101234.66
2022-11-03T05:42:22.900Z,101229.38
2022-11-03T05:44:51.722Z,101220.63
2022-11-03T05:47:24.468Z,101218.06
2022-11-03T05:49:56.527Z,101212.84
2022-11-03T05:52:25.328Z,101211.25
2022-11-03T05:54:53.501Z,101208.53
2022-11-03T05:57:20.210Z,101205.13
2022-11-03T05:59:49.094Z,101195.31
2022-11-03T06:02:38.507Z,101201.09
2022-11-03T06:05:20.065Z,101206.31
2022-11-03T06:07:47.432Z,101208.44
2022-11-03T06:10:31.356Z,101207.13
2022-11-03T06:13:04.821Z,101206.97
2022-11-03T06:15:34.206Z,101211.13
2022-11-03T06:18:02.889Z,101213.19
2022-11-03T06:20:29.220Z,101206.50
2022-11-03T06:22:57.459Z,101211.53
2022-11-03T06:25:32.822Z,101211.25
2022-11-03T06:28:06.581Z,101204.78
2022-11-03T06:30:36.043Z,101208.66
2022-11-03T06:33:11.091Z,101209.06
2022-11-03T06:35:37.231Z,101209.84
2022-11-03T06:38:03.344Z,101199.16
2022-11-03T06:40:34.126Z,101207.66
2022-11-03T06:43:08.763Z,101204.94
2022-11-03T06:45:35.029Z,101216.09
2022-11-03T06:48:02.775Z,101214.19
2022-11-03T06:50:31.742Z,101219.16
2022-11-03T06:52:59.580Z,101217.06
2022-11-03T06:55:28.308Z,101220.59
2022-11-03T06:58:23.528Z,101217.16
2022-11-03T07:00:51.692Z,101213.66
2022-11-03T07:03:23.141Z,101218.94
2022-11-03T07:05:49.307Z,101215.28
2022-11-03T07:08:35.324Z,101211.59
2022-11-03T07:11:01.408Z,101204.13
2022-11-03T07:13:28.498Z,101201.97
2022-11-03T07:15:54.696Z,101205.94
2022-11-03T07:18:38.833Z,101191.84
2022-11-03T07:21:26.001Z,101194.78
2022-11-03T07:23:52.449Z,101190.06
2022-11-03T07:26:18.760Z,101193.91
2022-11-03T07:28:44.872Z,101175.66
2022-11-03T07:31:18.928Z,101173.38
2022-11-03T07:33:45.525Z,101172.50
2022-11-03T07:36:19.714Z,101170.00
2022-11-03T07:38:50.565Z,101165.06
2022-11-03T07:41:22.191Z,101167.00
2022-11-03T07:43:53.818Z,101157.41
2022-11-03T07:46:21.551Z,101159.13
2022-11-03T07:48:49.349Z,101159.09
2022-11-03T07:51:28.653Z,101160.16
2022-11-03T07:54:09.377Z,101161.13
2022-11-03T07:56:43.310Z,101155.84
2022-11-03T07:59:09.401Z,101156.69
2022-11-03T08:01:40.580Z,101158.41
2022-11-03T08:04:20.025Z,101153.91
2022-11-03T08:06:46.357Z,101146.75
2022-11-03T08:09:12.865Z,101144.31
2022-11-03T08:11:39.542Z,101149.38
2022-11-03T08:14:05.657Z,101143.19
2022-11-03T08:16:31.809Z,101137.19
2022-11-03T08:18:57.930Z,101131.81
2022-11-03T08:21:24.180Z,101130.69
2022-11-03T08:23:50.882Z,101132.34
2022-11-03T08:26:17.003Z,101131.66
2022-11-03T08:28:43.127Z,101129.13
2022-11-03T08:31:12.681Z,101131.09
2022-11-03T08:33:39.659Z,101125.31
2022-11-03T08:36:06.099Z,101120.50
2022-11-03T08:38:32.450Z,101127.03
2022-11-03T08:40:58.844Z,101113.22
2022-11-03T08:43:25.155Z,101121.09
2022-11-03T08:45:53.757Z,101108.03
2022-11-03T08:48:21.040Z,101097.50
2022-11-03T08:50:48.102Z,101096.78
2022-11-03T08:53:14.226Z,101082.38
2022-11-03T08:55:40.336Z,101088.69
2022-11-03T08:58:07.257Z,101080.28
2022-11-03T09:00:38.305Z,101081.25
2022-11-03T09:03:06.798Z,101072.09
2022-11-03T09:05:32.942Z,101075.84
2022-11-03T09:10:45.927Z,101063.88
2022-11-03T09:13:12.030Z,101060.72
2022-11-03T09:15:38.169Z,101052.09
2022-11-03T09:18:04.594Z,101054.13
2022-11-03T09:20:31.679Z,101045.31
2022-11-03T09:22:57.951Z,101042.09
2022-11-03T09:25:24.077Z,101045.25
2022-11-03T09:27:50.185Z,101043.88
2022-11-03T09:30:17.788Z,101041.25
2022-11-03T09:32:44.553Z,101042.19
2022-11-03T09:35:12.005Z,101029.88
2022-11-03T09:37:38.109Z,101021.78
2022-11-03T09:40:04.555Z,101020.09
2022-11-03T09:42:34.403Z,101023.53
2022-11-03T09:45:01.601Z,101022.28
2022-11-03T09:47:34.179Z,101017.41
2022-11-03T09:50:00.965Z,101014.16
2022-11-03T09:52:27.275Z,101008.56
2022-11-03T09:54:55.673Z,101011.97
2022-11-03T09:57:23.039Z,101001.84
2022-11-03T09:59:50.793Z,100992.25
2022-11-03T10:02:29.846Z,100990.84
2022-11-03T10:04:58.115Z,100998.47
2022-11-03T10:07:26.819Z,100987.19
2022-11-03T10:09:54.715Z,100982.53
2022-11-03T10:12:24.061Z,100972.50
2022-11-03T10:14:51.071Z,100961.78
2022-11-03T10:17:25.911Z,100956.38
2022-11-03T10:19:55.660Z,100952.53
2022-11-03T10:22:22.403Z,100940.13
2022-11-03T10:24:48.995Z,100935.28
2022-11-03T10:27:23.582Z,100937.91
2022-11-03T10:30:08.210Z,100926.00
2022-11-03T10:32:34.925Z,100929.31
2022-11-03T10:35:01.150Z,100926.50
2022-11-03T10:37:28.383Z,100920.03
2022-11-03T10:39:56.789Z,100913.00
2022-11-03T10:42:35.036Z,100923.34
2022-11-03T10:45:15.620Z,100913.06
2022-11-03T10:47:41.747Z,100909.41
2022-11-03T10:50:25.795Z,100906.13
2022-11-03T10:52:52.409Z,100900.16
2022-11-03T10:55:24.862Z,100887.03
2022-11-03T10:57:53.375Z,100879.31
2022-11-03T11:00:19.927Z,100873.84
2022-11-03T11:02:47.766Z,100875.72
2022-11-03T11:05:21.628Z,100862.31
2022-11-03T11:07:51.324Z,100866.72
2022-11-03T11:10:26.916Z,100858.66
2022-11-03T11:13:05.385Z,100853.81
2022-11-03T11:15:58.064Z,100851.34
2022-11-03T11:18:30.390Z,100844.13
2022-11-03T11:20:57.440Z,100839.59
2022-11-03T11:23:29.443Z,100829.53
2022-11-03T11:26:05.931Z,100828.53
2022-11-03T11:28:32.116Z,100825.66
2022-11-03T11:30:58.946Z,100815.91
2022-11-03T11:33:27.612Z,100807.50
2022-11-03T11:35:58.773Z,100803.78
2022-11-03T11:38:52.292Z,100797.75
2022-11-03T11:41:20.850Z,100796.75
2022-11-03T11:43:46.973Z,100794.56
2022-11-03T11:46:22.326Z,100789.66
2022-11-03T11:48:57.231Z,100793.03
2022-11-03T11:51:24.716Z,100782.94
2022-11-03T11:54:10.008Z,100777.75
2022-11-03T11:56:44.163Z,100772.69
2022-11-03T11:59:25.675Z,100773.00
2022-11-03T12:01:54.945Z,100764.44
2022-11-03T12:04:33.202Z,100750.81
2022-11-03T12:06:59.610Z,100758.50
2022-11-03T12:09:30.521Z,100760.22
2022-11-03T12:12:00.795Z,100747.22
2022-11-03T12:14:38.458Z,100745.06
2022-11-03T12:17:17.172Z,100743.03
2022-11-03T12:19:45.009Z,100737.47
2022-11-03T12:22:32.212Z,100736.44
2022-11-03T12:25:04.767Z,100733.09
2022-11-03T12:27:30.813Z,100731.75
2022-11-03T12:29:59.594Z,100742.38
2022-11-03T12:32:33.452Z,100729.72
2022-11-03T12:35:02.076Z,100724.22
2022-11-03T12:37:28.239Z,100725.91
2022-11-03T12:39:54.341Z,100720.06
2022-11-03T12:42:21.211Z,100720.72
2022-11-03T12:44:47.341Z,100719.06
2022-11-03T12:47:13.485Z,100720.72
2022-11-03T12:49:39.624Z,100719.56
2022-11-03T12:52:08.240Z,100712.03
2022-11-03T12:54:34.625Z,100708.31
2022-11-03T12:57:00.898Z,100707.34
2022-11-03T12:59:27.025Z,100708.69
2022-11-03T13:01:53.241Z,100707.00
2022-11-03T13:04:19.445Z,100698.09
2022-11-03T13:06:45.856Z,100698.78
2022-11-03T13:09:11.993Z,100696.75
2022-11-03T13:11:56.814Z,100685.84
2022-11-03T13:14:22.987Z,100686.00
2022-11-03T13:16:49.098Z,100680.94
2022-11-03T13:19:15.603Z,100684.63
2022-11-03T13:21:42.376Z,100683.09
2022-11-03T13:24:08.492Z,100676.72
2022-11-03T13:26:34.701Z,100674.53
2022-11-03T13:29:01.020Z,100675.06
2022-11-03T13:31:27.240Z,100670.69
2022-11-03T13:33:53.377Z,100668.00
2022-11-03T13:36:19.563Z,100665.50
2022-11-03T13:38:45.910Z,100665.00
2022-11-03T13:41:12.061Z,100654.44
2022-11-03T13:43:38.174Z,100665.84
2022-11-03T13:46:05.283Z,100660.47
2022-11-03T13:51:19.072Z,100657.63
2022-11-03T13:56:32.121Z,100638.47
2022-11-03T14:01:45.088Z,100622.00
2022-11-03T14:06:58.126Z,100606.22
2022-11-03T14:09:24.992Z,100600.53
2022-11-03T14:12:09.959Z,100591.81
2022-11-03T14:14:36.088Z,100585.91
2022-11-03T14:17:02.218Z,100580.47
2022-11-03T14:19:36.468Z,100578.66
2022-11-03T14:22:02.868Z,100571.94
2022-11-03T14:24:29.000Z,100573.28
2022-11-03T14:26:55.122Z,100573.28
2022-11-03T14:29:21.281Z,100577.47
2022-11-03T14:31:47.409Z,100567.06
2022-11-03T14:34:13.567Z,100562.00
2022-11-03T14:36:39.715Z,100562.50
2022-11-03T14:39:05.896Z,100558.78
2022-11-03T14:41:50.746Z,100559.97
2022-11-03T14:44:16.862Z,100561.97
2022-11-03T14:46:43.029Z,100556.59
2022-11-03T14:49:09.264Z,100564.56
2022-11-03T14:51:35.670Z,100559.69
2022-11-03T14:54:01.789Z,100548.56
2022-11-03T14:56:27.910Z,100555.22
2022-11-03T14:58:54.041Z,100542.09
2022-11-03T15:01:20.873Z,100537.97
2022-11-03T15:03:47.356Z,100532.25
2022-11-03T15:06:13.807Z,100519.53
2022-11-03T15:08:39.901Z,100517.44
2022-11-03T15:11:10.645Z,100513.19
2022-11-03T15:13:41.723Z,100498.34
2022-11-03T15:16:12.108Z,100502.28
2022-11-03T15:18:38.208Z,100495.31
2022-11-03T15:21:04.938Z,100490.06
2022-11-03T15:26:17.147Z,100477.31
2022-11-03T15:28:43.249Z,100483.00
2022-11-03T15:31:09.421Z,100482.25
2022-11-03T15:33:35.516Z,100472.44
2022-11-03T15:36:01.785Z,100472.50
2022-11-03T15:38:27.934Z,100462.03
2022-11-03T15:40:54.039Z,100465.59
2022-11-03T15:43:20.159Z,100457.66
2022-11-03T15:45:46.262Z,100460.38
2022-11-03T15:48:12.741Z,100454.47
2022-11-03T15:50:39.430Z,100451.72
2022-11-03T15:53:05.545Z,100449.91
2022-11-03T15:55:31.663Z,100444.28
2022-11-03T15:57:57.771Z,100447.72
2022-11-03T16:00:23.912Z,100444.91
2022-11-03T16:02:50.225Z,100439.31
2022-11-03T16:05:19.771Z,100438.19
2022-11-03T16:07:49.989Z,100438.78
2022-11-03T16:10:16.160Z,100432.50
2022-11-03T16:12:43.998Z,100427.56
2022-11-03T16:45:39.835Z,100368.38
2022-11-03T16:48:07.070Z,100367.41
2022-11-03T16:50:33.878Z,100370.91
2022-11-03T16:52:59.983Z,100362.78
2022-11-03T16:55:26.166Z,100363.75
2022-11-03T16:57:52.255Z,100370.63
2022-11-03T17:00:19.905Z,100364.44
2022-11-03T17:02:47.069Z,100361.63
2022-11-03T17:05:14.231Z,100356.31
2022-11-03T17:07:40.315Z,100351.66
2022-11-03T17:10:08.120Z,100349.00
2022-11-03T17:12:34.246Z,100338.34
2022-11-03T17:15:00.384Z,100339.72
2022-11-03T17:17:26.539Z,100332.44
2022-11-03T17:19:52.643Z,100324.84
2022-11-03T17:22:20.292Z,100323.56
2022-11-03T17:24:46.385Z,100320.91
2022-11-03T17:27:16.640Z,100314.44
2022-11-03T17:29:47.908Z,100305.59
2022-11-03T17:32:18.603Z,100297.59
2022-11-03T17:34:44.701Z,100289.22
2022-11-03T17:37:10.923Z,100297.91
2022-11-03T17:39:39.118Z,100292.84
2022-11-03T17:42:18.020Z,100288.66
2022-11-03T17:44:45.791Z,100285.59
2022-11-03T17:47:11.904Z,100278.41
2022-11-03T17:49:38.133Z,100282.78
2022-11-03T17:52:04.771Z,100278.13
2022-11-03T17:54:32.015Z,100262.28
2022-11-03T17:57:00.241Z,100262.56
2022-11-03T17:59:26.537Z,100267.56
2022-11-03T18:01:53.168Z,100265.31
2022-11-03T18:04:19.395Z,100250.84
2022-11-03T18:06:45.560Z,100249.88
2022-11-03T18:09:11.668Z,100237.38
2022-11-03T18:12:18.583Z,100223.88
2022-11-03T18:14:44.677Z,100218.56
2022-11-03T18:17:10.810Z,100215.91
2022-11-03T18:19:36.912Z,100214.06
2022-11-03T18:22:03.254Z,100211.25
2022-11-03T18:24:29.374Z,100207.03
2022-11-03T18:26:55.543Z,100197.38
2022-11-03T18:29:21.646Z,100193.56
2022-11-03T18:31:50.491Z,100185.25
2022-11-03T18:34:24.021Z,100177.25
2022-11-03T18:36:50.401Z,100180.63
2022-11-03T18:39:23.113Z,100172.63
2022-11-03T18:41:49.255Z,100163.78
2022-11-03T18:44:25.195Z,100167.13
2022-11-03T18:46:53.085Z,100163.47
2022-11-03T18:49:19.798Z,100158.00
2022-11-03T18:52:02.894Z,100143.91
2022-11-03T18:54:31.499Z,100133.91
2022-11-03T18:56:58.122Z,100130.28
2022-11-03T18:59:37.674Z,100114.94
2022-11-03T19:02:15.089Z,100107.78
2022-11-03T19:04:41.268Z,100096.97
2022-11-03T19:07:11.667Z,100085.66
2022-11-03T19:09:37.819Z,100077.50
2022-11-03T19:12:04.195Z,100062.69
2022-11-03T19:14:33.180Z,100071.41
2022-11-03T19:17:21.808Z,100067.25
2022-11-03T19:19:47.928Z,100060.25
2022-11-03T19:22:20.579Z,100046.75
2022-11-03T19:24:46.969Z,100037.75
2022-11-03T19:27:27.351Z,100029.75
2022-11-03T19:29:54.653Z,100027.06
2022-11-03T19:32:32.826Z,100028.44
2022-11-03T19:35:14.637Z,100017.59
2022-11-03T19:37:40.836Z,100011.44
2022-11-03T19:40:09.302Z,100001.28
2022-11-03T19:42:37.114Z,100000.13
2022-11-03T19:45:07.689Z,99998.44
2022-11-03T19:47:47.863Z,100001.97
2022-11-03T19:50:26.365Z,99995.97
2022-11-03T19:53:02.599Z,99995.44
2022-11-03T19:55:32.496Z,100000.63
2022-11-03T19:58:12.444Z,99988.41
2022-11-03T20:00:38.545Z,99985.44
2022-11-03T20:03:04.750Z,99983.75
2022-11-03T20:05:31.342Z,99981.06
2022-11-03T20:08:03.591Z,99984.91
2022-11-03T20:10:31.869Z,99984.38
2022-11-03T20:13:01.615Z,99978.06
2022-11-03T20:15:27.718Z,99977.00
2022-11-03T20:17:54.197Z,99964.16
2022-11-03T20:20:26.554Z,99962.94
2022-11-03T20:22:55.704Z,99962.88
2022-11-03T20:25:27.993Z,99958.16
2022-11-03T20:27:56.230Z,99947.81
2022-11-03T20:30:23.915Z,99945.09
2022-11-03T20:32:51.071Z,99943.56
2022-11-03T20:35:23.036Z,99932.34
2022-11-03T20:37:53.272Z,99930.69
2022-11-03T20:40:22.703Z,99930.84
2022-11-03T20:42:55.441Z,99924.97
2022-11-03T20:45:23.252Z,99922.31
2022-11-03T20:47:50.112Z,99923.47
2022-11-03T20:50:20.818Z,99927.97
2022-11-03T20:52:48.140Z,99926.13
2022-11-03T20:55:20.064Z,99927.28
2022-11-03T20:57:47.161Z,99924.63
2022-11-03T21:00:21.764Z,99926.28
2022-11-03T21:02:49.580Z,99934.44
2022-11-03T21:05:27.144Z,99931.78
2022-11-03T21:07:55.083Z,99929.72
2022-11-03T21:10:23.246Z,99931.84
2022-11-03T21:12:49.817Z,99924.34
2022-11-03T21:15:48.160Z,99911.84
2022-11-03T21:18:42.396Z,99914.66
2022-11-03T21:21:11.157Z,99909.16
2022-11-03T21:23:37.618Z,99917.03
2022-11-03T21:26:03.827Z,99910.19
2022-11-03T21:28:30.086Z,99911.47
2022-11-03T21:30:56.810Z,99908.13
2022-11-03T21:33:23.691Z,99912.25
2022-11-03T21:35:50.659Z,99910.03
2022-11-03T21:38:17.847Z,99905.31
2022-11-03T21:40:56.321Z,99898.91
2022-11-03T21:43:41.429Z,99895.88
2022-11-03T21:46:09.632Z,99885.84
2022-11-03T21:48:55.714Z,99890.91
2022-11-03T21:51:22.331Z,99899.66
2022-11-03T21:53:49.144Z,99885.44
2022-11-03T21:56:16.002Z,99882.72
2022-11-03T21:58:42.791Z,99881.63
2022-11-03T22:01:09.733Z,99877.72
2022-11-03T22:03:37.167Z,99885.31
2022-11-03T22:06:08.649Z,99875.13
2022-11-03T22:08:35.748Z,99880.22
2022-11-03T22:11:21.345Z,99874.91
2022-11-03T22:13:54.220Z,99871.09
2022-11-03T22:16:39.487Z,99873.28
2022-11-03T22:19:38.410Z,99878.63
2022-11-03T22:22:33.875Z,99871.88
2022-11-03T22:25:19.095Z,99865.78
2022-11-03T22:27:45.393Z,99863.22
2022-11-03T22:30:30.337Z,99865.25
2022-11-03T22:32:57.893Z,99861.34
2022-11-03T22:35:43.812Z,99852.88
2022-11-03T22:38:14.097Z,99848.94
2022-11-03T22:41:00.141Z,99841.47
2022-11-03T22:43:45.191Z,99829.66
2022-11-03T22:46:13.131Z,99837.38
2022-11-03T22:48:39.881Z,99838.88
2022-11-03T22:51:06.085Z,99834.91
2022-11-03T22:53:52.713Z,99834.63
2022-11-03T22:56:19.988Z,99839.13
2022-11-03T22:58:46.190Z,99833.78
2022-11-03T23:01:15.610Z,99826.47
2022-11-03T23:03:44.461Z,99822.28
2022-11-03T23:06:13.642Z,99826.78
2022-11-03T23:08:42.418Z,99821.59
2022-11-03T23:11:20.706Z,99817.41
2022-11-03T23:13:52.281Z,99810.25
2022-11-03T23:16:21.122Z,99801.59
2022-11-03T23:19:06.571Z,99805.41
2022-11-03T23:21:34.142Z,99800.38
2022-11-03T23:24:19.061Z,99799.53
2022-11-03T23:26:45.879Z,99793.38
2022-11-03T23:29:13.520Z,99801.38
2022-11-03T23:31:41.169Z,99799.69
2022-11-03T23:34:08.974Z,99801.53
2022-11-03T23:36:35.327Z,99798.84
2022-11-03T23:39:02.169Z,99798.03
2022-11-03T23:41:28.977Z,99798.31
2022-11-03T23:43:56.180Z,99792.31
2022-11-03T23:46:43.515Z,99787.28
2022-11-03T23:49:10.214Z,99789.25
2022-11-03T23:51:37.127Z,99781.47
2022-11-03T23:54:05.120Z,99782.56
2022-11-03T23:56:53.980Z,99777.72
2022-11-03T23:59:20.463Z,99780.69
